Time;durP1;ratioP1;P1;durP2;ratioP2;P2;SDS_P1;SDS_P2;PMS_P1;PMS_P2;Temp;Humidity;BMP_temperature;BMP_pressure;BME280_temperature;BME280_humidity;BME280_pressure;Samples;Min_cycle;Max_cycle;Signal;HPM_P1;HPM_P2
2022/12/08 00:00:26;;;;;;;10.10;9.60;;;;;;;;;;5056933;28;20052;-68
2022/12/08 00:02:51;;;;;;;9.88;9.38;;;;;;;;;;5064010;28;20377;-66
2022/12/08 00:10:44;;;;;;;11.20;10.60;;;;;;;;;;5053938;28;20163;-67
2022/12/08 00:13:10;;;;;;;9.32;8.93;;;;;;;;;;5063688;28;20119;-66
2022/12/08 00:15:35;;;;;;;10.32;9.77;;;;;;;;;;5059036;28;20028;-68
2022/12/08 00:18:01;;;;;;;11.00;10.40;;;;;;;;;;5061603;28;20033;-67
2022/12/08 00:20:26;;;;;;;10.75;10.15;;;;;;;;;;5045572;28;20052;-67
2022/12/08 00:22:51;;;;;;;11.13;10.52;;;;;;;;;;5053233;28;20499;-67
2022/12/08 00:25:17;;;;;;;10.45;9.95;;;;;;;;;;5062289;28;20017;-67
2022/12/08 00:27:42;;;;;;;10.98;10.38;;;;;;;;;;5063683;28;20717;-66
2022/12/08 00:30:07;;;;;;;10.63;10.13;;;;;;;;;;5058544;28;20075;-66
2022/12/08 00:32:33;;;;;;;10.50;10.00;;;;;;;;;;5057415;28;20056;-67
2022/12/08 00:34:58;;;;;;;10.38;9.85;;;;;;;;;;5058925;28;20017;-67
2022/12/08 00:37:23;;;;;;;10.82;10.23;;;;;;;;;;5059293;28;20032;-66
2022/12/08 00:39:48;;;;;;;10.88;10.30;;;;;;;;;;5059540;28;20071;-68
2022/12/08 00:42:14;;;;;;;10.73;10.23;;;;;;;;;;5060731;28;20484;-69
2022/12/08 00:44:40;;;;;;;10.82;10.23;;;;;;;;;;5060847;28;20012;-68
2022/12/08 00:47:05;;;;;;;10.75;10.15;;;;;;;;;;5062044;28;20021;-68
2022/12/08 00:49:31;;;;;;;10.88;10.27;;;;;;;;;;5059562;28;20104;-67
2022/12/08 00:51:56;;;;;;;10.52;10.00;;;;;;;;;;5062032;28;20083;-68
2022/12/08 00:54:22;;;;;;;10.57;10.00;;;;;;;;;;5052161;28;20515;-67
2022/12/08 00:56:47;;;;;;;10.77;10.23;;;;;;;;;;5051780;28;20086;-68
2022/12/08 00:59:13;;;;;;;10.05;9.55;;;;;;;;;;5060507;28;20021;-67
2022/12/08 01:01:38;;;;;;;10.85;10.25;;;;;;;;;;5059981;28;20027;-68
2022/12/08 01:04:04;;;;;;;10.07;9.57;;;;;;;;;;5057142;28;20082;-68
2022/12/08 01:06:29;;;;;;;11.80;11.10;;;;;;;;;;5062225;28;20699;-67
2022/12/08 01:08:54;;;;;;;10.50;10.00;;;;;;;;;;5059835;28;20051;-68
2022/12/08 01:11:20;;;;;;;10.45;9.95;;;;;;;;;;5053020;28;20035;-67
2022/12/08 01:13:45;;;;;;;11.00;10.40;;;;;;;;;;5055587;28;20043;-69
2022/12/08 01:16:24;;;;;;;11.05;10.45;;;;;;;;;;5065503;28;20495;-67
2022/12/08 01:18:49;;;;;;;11.05;10.45;;;;;;;;;;5060297;28;20025;-68
2022/12/08 01:21:15;;;;;;;10.38;9.88;;;;;;;;;;5059088;28;20099;-67
2022/12/08 01:23:40;;;;;;;11.10;10.50;;;;;;;;;;5063788;28;20044;-67
2022/12/08 01:26:06;;;;;;;10.32;9.82;;;;;;;;;;5061390;28;20104;-68
2022/12/08 01:28:32;;;;;;;10.40;9.90;;;;;;;;;;5056149;28;20538;-68
2022/12/08 01:30:58;;;;;;;10.43;9.93;;;;;;;;;;5053472;28;20025;-67
2022/12/08 01:33:24;;;;;;;10.68;10.15;;;;;;;;;;5062671;28;20123;-67
2022/12/08 01:35:49;;;;;;;10.43;9.93;;;;;;;;;;5062370;28;20029;-67
2022/12/08 01:38:14;;;;;;;10.82;10.23;;;;;;;;;;5061604;28;20013;-67
2022/12/08 01:40:39;;;;;;;11.18;10.50;;;;;;;;;;5062419;28;20061;-68
2022/12/08 01:43:05;;;;;;;11.02;10.43;;;;;;;;;;5063002;28;20111;-68
2022/12/08 01:45:31;;;;;;;10.40;9.90;;;;;;;;;;5058233;28;20391;-67
2022/12/08 01:48:03;;;;;;;10.48;9.98;;;;;;;;;;5058353;28;20472;-67
2022/12/08 01:50:29;;;;;;;10.18;9.68;;;;;;;;;;5065002;28;20031;-68
2022/12/08 01:53:00;;;;;;;10.23;9.73;;;;;;;;;;5066096;28;20462;-67
2022/12/08 01:55:29;;;;;;;11.02;10.43;;;;;;;;;;5065576;28;20032;-67
2022/12/08 01:57:57;;;;;;;11.30;10.70;;;;;;;;;;5063713;28;20043;-67
2022/12/08 02:00:22;;;;;;;10.70;10.15;;;;;;;;;;5056733;28;20024;-67
2022/12/08 02:03:02;;;;;;;11.07;10.43;;;;;;;;;;5070023;28;20013;-68
2022/12/08 02:05:29;;;;;;;10.60;10.00;;;;;;;;;;5067806;28;20021;-67
2022/12/08 02:07:55;;;;;;;10.70;10.10;;;;;;;;;;5062960;28;20701;-67
2022/12/08 02:10:22;;;;;;;10.82;10.23;;;;;;;;;;5065489;28;20052;-68
2022/12/08 02:12:49;;;;;;;11.65;10.95;;;;;;;;;;5057538;28;20562;-67
2022/12/08 02:15:15;;;;;;;10.70;10.13;;;;;;;;;;5056778;28;20048;-67
2022/12/08 02:17:48;;;;;;;11.23;10.60;;;;;;;;;;5063398;28;20051;-67
2022/12/08 02:20:22;;;;;;;10.30;9.80;;;;;;;;;;5055724;28;20460;-67
2022/12/08 02:22:55;;;;;;;11.05;10.45;;;;;;;;;;5058204;28;20029;-67
2022/12/08 02:25:30;;;;;;;10.60;10.00;;;;;;;;;;5056397;28;20100;-67
2022/12/08 02:28:18;;;;;;;10.15;9.65;;;;;;;;;;5056744;28;20024;-67
2022/12/08 02:30:49;;;;;;;10.38;9.88;;;;;;;;;;5059852;28;20047;-66
2022/12/08 02:33:20;;;;;;;10.27;9.75;;;;;;;;;;5066102;28;20021;-66
2022/12/08 02:35:57;;;;;;;11.23;10.63;;;;;;;;;;5056012;28;20028;-67
2022/12/08 02:38:48;;;;;;;10.43;9.90;;;;;;;;;;5059648;28;20032;-67
2022/12/08 02:41:25;;;;;;;10.43;9.90;;;;;;;;;;5044008;28;20025;-67
2022/12/08 02:44:05;;;;;;;10.45;9.95;;;;;;;;;;5055460;28;20488;-67
2022/12/08 02:46:32;;;;;;;10.55;10.05;;;;;;;;;;5058632;28;20083;-67
2022/12/08 02:48:59;;;;;;;10.23;9.73;;;;;;;;;;5053332;28;20028;-68
2022/12/08 02:51:24;;;;;;;10.80;10.20;;;;;;;;;;5056634;28;20443;-68
2022/12/08 02:53:49;;;;;;;10.32;9.82;;;;;;;;;;5062086;28;20059;-67
2022/12/08 02:56:15;;;;;;;10.80;10.18;;;;;;;;;;5059056;28;20191;-67
2022/12/08 02:59:09;;;;;;;11.20;10.50;;;;;;;;;;5059875;28;20023;-67
2022/12/08 03:01:53;;;;;;;9.80;9.30;;;;;;;;;;5055733;28;20116;-67
2022/12/08 03:04:29;;;;;;;10.75;10.15;;;;;;;;;;5065364;28;20032;-68
2022/12/08 03:06:54;;;;;;;11.00;10.40;;;;;;;;;;5059020;28;20013;-68
2022/12/08 03:09:20;;;;;;;9.90;9.40;;;;;;;;;;5056865;28;20446;-67
2022/12/08 03:11:51;;;;;;;11.07;10.38;;;;;;;;;;5058964;28;20265;-67
2022/12/08 03:14:18;;;;;;;9.90;9.40;;;;;;;;;;5051818;28;20017;-67
2022/12/08 03:16:46;;;;;;;11.07;10.48;;;;;;;;;;5061961;28;20075;-67
2022/12/08 03:19:11;;;;;;;11.35;10.65;;;;;;;;;;5057430;28;20017;-67
2022/12/08 03:21:38;;;;;;;10.77;10.18;;;;;;;;;;5057165;28;20384;-66
2022/12/08 03:24:04;;;;;;;10.15;9.65;;;;;;;;;;5059804;28;20027;-67
2022/12/08 03:26:33;;;;;;;10.50;9.95;;;;;;;;;;5053679;28;20017;-67
2022/12/08 03:28:59;;;;;;;10.25;9.75;;;;;;;;;;5061746;28;20023;-67
2022/12/08 03:31:25;;;;;;;10.10;9.60;;;;;;;;;;5059185;28;20115;-66
2022/12/08 03:33:52;;;;;;;11.75;11.05;;;;;;;;;;5057178;28;20032;-67
2022/12/08 03:36:17;;;;;;;10.30;9.80;;;;;;;;;;5060962;28;20020;-66
2022/12/08 03:38:44;;;;;;;11.77;11.07;;;;;;;;;;5059186;28;20464;-66
2022/12/08 03:41:18;;;;;;;10.43;9.93;;;;;;;;;;5056016;28;20066;-67
2022/12/08 03:43:54;;;;;;;10.25;9.75;;;;;;;;;;5062215;28;20044;-67
2022/12/08 03:46:20;;;;;;;10.57;10.02;;;;;;;;;;5061719;28;20056;-66
2022/12/08 03:48:46;;;;;;;10.07;9.57;;;;;;;;;;5057232;28;20400;-67
2022/12/08 03:51:11;;;;;;;11.52;10.88;;;;;;;;;;5051458;28;20024;-67
2022/12/08 03:53:37;;;;;;;11.40;10.77;;;;;;;;;;5057288;28;20506;-68
2022/12/08 03:56:13;;;;;;;10.93;10.32;;;;;;;;;;5058277;28;20024;-69
2022/12/08 03:58:38;;;;;;;11.52;10.82;;;;;;;;;;5055194;28;20534;-67
2022/12/08 04:01:04;;;;;;;10.98;10.38;;;;;;;;;;5062182;28;20032;-67
2022/12/08 04:03:29;;;;;;;10.73;10.13;;;;;;;;;;5051920;28;20017;-67
2022/12/08 04:05:54;;;;;;;10.90;10.30;;;;;;;;;;5055467;28;20035;-67
2022/12/08 04:08:20;;;;;;;10.60;10.02;;;;;;;;;;5060921;28;20032;-67
2022/12/08 04:10:45;;;;;;;10.77;10.23;;;;;;;;;;5065419;28;20032;-66
2022/12/08 04:13:10;;;;;;;10.10;9.60;;;;;;;;;;5058475;28;20037;-66
2022/12/08 04:15:35;;;;;;;10.43;9.82;;;;;;;;;;5061182;28;20090;-68
2022/12/08 04:18:01;;;;;;;10.27;9.77;;;;;;;;;;5055058;28;20023;-66
2022/12/08 04:20:26;;;;;;;10.73;10.13;;;;;;;;;;5058691;28;20021;-67
2022/12/08 04:22:51;;;;;;;11.05;10.45;;;;;;;;;;5061114;28;20471;-67
2022/12/08 04:25:17;;;;;;;10.10;9.60;;;;;;;;;;5061449;28;20032;-67
2022/12/08 04:27:42;;;;;;;10.30;9.80;;;;;;;;;;5054423;28;20021;-67
2022/12/08 04:30:08;;;;;;;11.02;10.43;;;;;;;;;;5058593;28;20028;-67
2022/12/08 04:32:33;;;;;;;10.52;10.00;;;;;;;;;;5058442;28;21472;-67
2022/12/08 04:34:58;;;;;;;11.35;10.75;;;;;;;;;;5062157;28;20086;-67
2022/12/08 04:37:23;;;;;;;10.80;10.20;;;;;;;;;;5066267;28;20538;-67
2022/12/08 04:39:49;;;;;;;11.15;10.55;;;;;;;;;;5055854;28;20103;-67
2022/12/08 04:42:14;;;;;;;11.40;10.80;;;;;;;;;;5056184;28;20108;-67
2022/12/08 04:44:39;;;;;;;10.73;10.15;;;;;;;;;;5056540;28;20029;-67
2022/12/08 04:47:04;;;;;;;9.98;9.48;;;;;;;;;;5052128;28;20055;-67
2022/12/08 04:49:30;;;;;;;11.13;10.52;;;;;;;;;;5059811;28;20096;-67
2022/12/08 04:51:55;;;;;;;10.25;9.75;;;;;;;;;;5063759;28;20024;-68
2022/12/08 04:54:20;;;;;;;10.48;9.93;;;;;;;;;;5068886;28;20033;-68
2022/12/08 04:56:46;;;;;;;10.13;9.63;;;;;;;;;;5053536;28;20025;-67
2022/12/08 04:59:11;;;;;;;10.82;10.23;;;;;;;;;;5061338;28;20494;-67
2022/12/08 05:01:36;;;;;;;9.85;9.35;;;;;;;;;;5062816;28;20096;-67
2022/12/08 05:04:01;;;;;;;11.23;10.63;;;;;;;;;;5059419;28;20491;-66
2022/12/08 05:06:27;;;;;;;10.02;9.52;;;;;;;;;;5050869;28;20021;-67
2022/12/08 05:08:52;;;;;;;11.65;10.95;;;;;;;;;;5057166;28;20045;-66
2022/12/08 05:11:18;;;;;;;10.43;9.82;;;;;;;;;;5054641;28;20042;-70
2022/12/08 05:13:43;;;;;;;11.35;10.75;;;;;;;;;;5060279;28;20051;-69
2022/12/08 05:16:12;;;;;;;11.32;10.65;;;;;;;;;;5061985;28;20028;-69
2022/12/08 05:18:38;;;;;;;10.93;10.32;;;;;;;;;;5064019;28;20017;-69
2022/12/08 05:21:04;;;;;;;10.43;9.93;;;;;;;;;;5059757;28;20024;-68
2022/12/08 05:23:29;;;;;;;10.52;9.93;;;;;;;;;;5058674;28;20035;-69
2022/12/08 05:25:54;;;;;;;11.35;10.75;;;;;;;;;;5058740;28;20586;-69
2022/12/08 05:28:20;;;;;;;11.23;10.63;;;;;;;;;;5057813;28;20029;-69
2022/12/08 05:30:45;;;;;;;10.90;10.30;;;;;;;;;;5070787;28;20020;-69
2022/12/08 05:33:10;;;;;;;10.95;10.35;;;;;;;;;;5057600;28;20029;-69
2022/12/08 05:35:36;;;;;;;9.70;9.20;;;;;;;;;;5061913;28;20032;-70
2022/12/08 05:38:01;;;;;;;11.00;10.40;;;;;;;;;;5057935;28;20048;-68
2022/12/08 05:40:26;;;;;;;11.27;10.68;;;;;;;;;;5053267;28;20395;-69
2022/12/08 05:42:52;;;;;;;10.95;10.35;;;;;;;;;;5055819;28;20528;-69
2022/12/08 05:45:17;;;;;;;11.43;10.73;;;;;;;;;;5058825;28;20017;-71
2022/12/08 05:47:42;;;;;;;10.82;10.25;;;;;;;;;;5058468;28;20578;-70
2022/12/08 05:50:08;;;;;;;10.25;9.75;;;;;;;;;;5060296;28;20064;-71
2022/12/08 05:52:33;;;;;;;10.85;10.25;;;;;;;;;;5056680;28;20139;-70
2022/12/08 05:54:59;;;;;;;11.13;10.52;;;;;;;;;;5060936;28;20023;-70
2022/12/08 05:57:24;;;;;;;11.02;10.43;;;;;;;;;;5055465;28;20503;-70
2022/12/08 05:59:49;;;;;;;11.48;10.77;;;;;;;;;;5065656;28;20025;-70
2022/12/08 06:02:14;;;;;;;10.25;9.75;;;;;;;;;;5058503;28;20016;-71
2022/12/08 06:04:40;;;;;;;10.90;10.30;;;;;;;;;;5063722;28;20119;-70
2022/12/08 06:07:06;;;;;;;10.93;10.32;;;;;;;;;;5056561;28;20044;-70
2022/12/08 06:09:32;;;;;;;11.20;10.57;;;;;;;;;;5058448;28;20024;-70
2022/12/08 06:11:57;;;;;;;10.95;10.35;;;;;;;;;;5062548;28;20464;-71
2022/12/08 06:14:22;;;;;;;12.02;11.32;;;;;;;;;;5062804;28;20461;-71
2022/12/08 06:16:48;;;;;;;10.45;9.93;;;;;;;;;;5059632;28;20546;-71
2022/12/08 06:19:14;;;;;;;10.40;9.90;;;;;;;;;;5058417;28;20827;-71
2022/12/08 06:21:39;;;;;;;11.02;10.43;;;;;;;;;;5062137;28;20136;-71
2022/12/08 06:24:05;;;;;;;10.57;9.98;;;;;;;;;;5059890;28;20104;-71
2022/12/08 06:26:30;;;;;;;10.20;9.70;;;;;;;;;;5058245;28;20074;-70
2022/12/08 06:28:55;;;;;;;10.40;9.80;;;;;;;;;;5062520;28;20498;-71
2022/12/08 06:31:22;;;;;;;11.52;10.88;;;;;;;;;;5057871;28;20028;-70
2022/12/08 06:33:48;;;;;;;10.05;9.55;;;;;;;;;;5056232;28;20076;-70
2022/12/08 06:36:14;;;;;;;10.52;9.98;;;;;;;;;;5058102;28;20492;-68
2022/12/08 06:38:39;;;;;;;11.25;10.65;;;;;;;;;;5058482;28;20021;-67
2022/12/08 06:41:05;;;;;;;10.43;9.88;;;;;;;;;;5055945;28;20024;-66
2022/12/08 06:43:30;;;;;;;10.63;10.02;;;;;;;;;;5048919;28;20025;-69
2022/12/08 06:45:55;;;;;;;10.60;10.00;;;;;;;;;;5055124;28;20108;-68
2022/12/08 06:48:21;;;;;;;10.60;9.95;;;;;;;;;;5053316;28;20101;-68
2022/12/08 06:50:46;;;;;;;10.55;9.95;;;;;;;;;;5046959;28;20049;-67
2022/12/08 06:53:12;;;;;;;10.60;10.00;;;;;;;;;;5053920;28;20062;-67
2022/12/08 06:55:42;;;;;;;10.48;9.88;;;;;;;;;;5051398;28;20029;-67
2022/12/08 06:58:07;;;;;;;10.93;10.25;;;;;;;;;;5053572;28;20538;-67
2022/12/08 07:00:32;;;;;;;12.20;11.48;;;;;;;;;;5047265;28;20025;-66
2022/12/08 07:02:57;;;;;;;11.02;10.43;;;;;;;;;;5047456;28;20013;-67
2022/12/08 07:05:23;;;;;;;10.55;9.98;;;;;;;;;;5061495;28;20180;-67
2022/12/08 07:07:48;;;;;;;10.40;9.85;;;;;;;;;;5056297;28;20025;-67
2022/12/08 07:10:13;;;;;;;10.35;9.75;;;;;;;;;;5053974;28;20052;-67
2022/12/08 07:12:39;;;;;;;10.70;10.10;;;;;;;;;;5053751;28;20048;-68
2022/12/08 07:15:04;;;;;;;9.50;9.07;;;;;;;;;;5046811;28;20025;-68
2022/12/08 07:17:29;;;;;;;10.98;10.38;;;;;;;;;;5051873;28;20208;-67
2022/12/08 07:19:55;;;;;;;9.90;9.40;;;;;;;;;;5053413;28;20033;-67
2022/12/08 07:22:20;;;;;;;10.90;10.30;;;;;;;;;;5048733;28;20018;-69
2022/12/08 07:24:45;;;;;;;11.18;10.52;;;;;;;;;;5050684;28;20025;-68
2022/12/08 07:27:11;;;;;;;12.43;11.63;;;;;;;;;;5045446;28;20414;-66
2022/12/08 07:29:36;;;;;;;10.63;10.07;;;;;;;;;;5047889;28;20480;-69
2022/12/08 07:32:01;;;;;;;10.77;10.18;;;;;;;;;;5053705;28;20021;-69
2022/12/08 07:34:27;;;;;;;10.48;9.88;;;;;;;;;;5053888;28;20037;-67
2022/12/08 07:36:52;;;;;;;10.85;10.25;;;;;;;;;;5047115;28;20379;-69
2022/12/08 07:39:17;;;;;;;10.13;9.63;;;;;;;;;;5045906;28;20473;-68
2022/12/08 07:41:42;;;;;;;10.77;10.18;;;;;;;;;;5051555;28;20096;-67
2022/12/08 07:44:08;;;;;;;10.35;9.80;;;;;;;;;;5051712;28;20020;-67
2022/12/08 07:46:33;;;;;;;10.55;9.95;;;;;;;;;;5052820;28;20021;-67
2022/12/08 07:48:58;;;;;;;11.60;10.90;;;;;;;;;;5051802;28;20392;-67
2022/12/08 07:51:24;;;;;;;10.90;10.30;;;;;;;;;;5057594;28;20028;-67
2022/12/08 07:53:50;;;;;;;9.95;9.45;;;;;;;;;;5052102;28;20467;-68
2022/12/08 07:56:16;;;;;;;11.18;10.48;;;;;;;;;;5050076;28;20017;-68
2022/12/08 07:58:44;;;;;;;11.82;11.13;;;;;;;;;;5054242;28;20017;-67
2022/12/08 08:01:19;;;;;;;10.70;10.10;;;;;;;;;;5050960;28;20095;-68
2022/12/08 08:03:45;;;;;;;10.38;9.88;;;;;;;;;;5050898;28;20143;-66
2022/12/08 08:06:10;;;;;;;10.55;9.95;;;;;;;;;;5050518;28;20103;-67
2022/12/08 08:08:35;;;;;;;11.05;10.45;;;;;;;;;;5054491;28;20020;-67
2022/12/08 08:11:04;;;;;;;10.02;9.52;;;;;;;;;;5057638;28;20029;-66
2022/12/08 08:13:30;;;;;;;10.07;9.57;;;;;;;;;;5049814;28;20057;-67
2022/12/08 08:16:01;;;;;;;11.07;10.48;;;;;;;;;;5051107;28;20035;-67
2022/12/08 08:18:26;;;;;;;11.27;10.60;;;;;;;;;;5046224;28;20021;-67
2022/12/08 08:20:51;;;;;;;11.57;10.88;;;;;;;;;;5050787;28;20017;-67
2022/12/08 08:23:17;;;;;;;10.75;10.15;;;;;;;;;;5047237;28;20025;-67
2022/12/08 08:25:42;;;;;;;10.38;9.82;;;;;;;;;;5056147;28;20028;-67
2022/12/08 08:28:07;;;;;;;10.23;9.73;;;;;;;;;;5056847;28;20020;-67
2022/12/08 08:30:33;;;;;;;9.93;9.43;;;;;;;;;;5057479;28;20060;-67
2022/12/08 08:32:59;;;;;;;11.55;10.88;;;;;;;;;;5054141;28;20111;-67
2022/12/08 08:35:24;;;;;;;10.30;9.77;;;;;;;;;;5058275;28;20422;-68
2022/12/08 08:37:49;;;;;;;11.90;11.20;;;;;;;;;;5054350;28;20033;-67
2022/12/08 08:40:15;;;;;;;10.38;9.88;;;;;;;;;;5052794;28;20045;-65
2022/12/08 08:42:41;;;;;;;10.38;9.88;;;;;;;;;;5059946;28;20028;-68
2022/12/08 08:45:06;;;;;;;10.00;9.50;;;;;;;;;;5056596;28;20397;-66
2022/12/08 08:47:32;;;;;;;10.15;9.65;;;;;;;;;;5054399;28;20028;-66
2022/12/08 08:49:57;;;;;;;10.27;9.77;;;;;;;;;;5057887;28;20023;-67
2022/12/08 08:52:22;;;;;;;10.40;9.85;;;;;;;;;;5058240;28;20024;-65
2022/12/08 08:54:47;;;;;;;10.85;10.25;;;;;;;;;;5053912;28;20026;-66
2022/12/08 08:57:13;;;;;;;10.25;9.75;;;;;;;;;;5056529;28;20033;-66
2022/12/08 08:59:38;;;;;;;10.38;9.88;;;;;;;;;;5055466;28;20091;-67
2022/12/08 09:02:03;;;;;;;11.02;10.43;;;;;;;;;;5057330;28;20016;-68
2022/12/08 09:04:29;;;;;;;10.88;10.27;;;;;;;;;;5055197;28;20472;-68
2022/12/08 09:06:54;;;;;;;11.07;10.48;;;;;;;;;;5054814;28;20056;-67
2022/12/08 09:09:19;;;;;;;10.43;9.93;;;;;;;;;;5055981;28;20040;-67
2022/12/08 09:11:45;;;;;;;10.40;9.90;;;;;;;;;;5051849;28;20079;-66
2022/12/08 09:14:16;;;;;;;10.15;9.65;;;;;;;;;;5056351;28;20017;-67
2022/12/08 09:16:41;;;;;;;10.35;9.85;;;;;;;;;;5056880;28;20052;-67
2022/12/08 09:19:07;;;;;;;10.98;10.38;;;;;;;;;;5053276;28;20135;-66
2022/12/08 09:21:32;;;;;;;10.10;9.60;;;;;;;;;;5054720;28;20021;-67
2022/12/08 09:23:58;;;;;;;11.23;10.63;;;;;;;;;;5053959;28;20024;-67
2022/12/08 09:26:23;;;;;;;10.27;9.77;;;;;;;;;;5055458;28;20078;-67
2022/12/08 09:28:49;;;;;;;10.20;9.70;;;;;;;;;;5051452;28;20021;-67
2022/12/08 09:31:18;;;;;;;11.25;10.65;;;;;;;;;;5057450;28;20025;-67
2022/12/08 09:33:44;;;;;;;12.25;11.55;;;;;;;;;;5051731;28;20032;-66
2022/12/08 09:36:10;;;;;;;10.35;9.85;;;;;;;;;;5053115;28;20037;-68
2022/12/08 09:38:35;;;;;;;10.77;10.18;;;;;;;;;;5055984;28;20105;-70
2022/12/08 09:41:03;;;;;;;10.82;10.23;;;;;;;;;;5052079;28;20100;-71
2022/12/08 09:43:39;;;;;;;11.77;11.07;;;;;;;;;;5048494;28;21164;-72
2022/12/08 09:46:06;;;;;;;10.95;10.35;;;;;;;;;;5055068;28;20032;-69
2022/12/08 09:48:34;;;;;;;11.85;11.15;;;;;;;;;;5053690;28;20507;-70
2022/12/08 09:50:59;;;;;;;10.57;10.07;;;;;;;;;;5050138;28;20043;-70
2022/12/08 09:53:25;;;;;;;10.70;10.20;;;;;;;;;;5048644;28;20103;-69
2022/12/08 09:55:53;;;;;;;11.45;10.82;;;;;;;;;;5053305;28;20036;-69
2022/12/08 09:58:24;;;;;;;10.00;9.50;;;;;;;;;;5051181;28;20107;-67
2022/12/08 10:00:49;;;;;;;11.60;11.00;;;;;;;;;;5054342;28;20029;-70
2022/12/08 10:03:15;;;;;;;11.02;10.43;;;;;;;;;;5057454;28;20424;-71
2022/12/08 10:05:44;;;;;;;11.73;11.02;;;;;;;;;;5051767;28;20024;-70
2022/12/08 10:08:18;;;;;;;10.40;9.90;;;;;;;;;;5050835;28;20099;-70
2022/12/08 10:10:52;;;;;;;10.15;9.65;;;;;;;;;;5053196;28;20066;-71
2022/12/08 10:13:24;;;;;;;10.13;9.63;;;;;;;;;;5054610;28;20095;-70
2022/12/08 10:15:56;;;;;;;10.00;9.50;;;;;;;;;;5054760;28;20495;-70
2022/12/08 10:18:24;;;;;;;10.23;9.73;;;;;;;;;;5050340;28;20065;-69
2022/12/08 10:20:50;;;;;;;9.75;9.25;;;;;;;;;;5050644;28;20478;-66
2022/12/08 10:23:15;;;;;;;10.10;9.60;;;;;;;;;;5058578;28;20017;-68
2022/12/08 10:25:40;;;;;;;10.30;9.80;;;;;;;;;;5047724;28;20796;-68
2022/12/08 10:28:06;;;;;;;10.00;9.50;;;;;;;;;;5053302;28;20103;-69
2022/12/08 10:30:32;;;;;;;10.25;9.75;;;;;;;;;;5049633;28;20476;-69
2022/12/08 10:32:57;;;;;;;10.32;9.82;;;;;;;;;;5054608;28;20147;-68
2022/12/08 10:35:24;;;;;;;10.70;10.20;;;;;;;;;;5055145;28;20040;-68
2022/12/08 10:37:56;;;;;;;11.30;10.70;;;;;;;;;;5053182;28;20025;-70
2022/12/08 10:40:22;;;;;;;11.15;10.55;;;;;;;;;;5053460;28;20028;-60
2022/12/08 10:42:52;;;;;;;10.13;9.63;;;;;;;;;;5052411;28;20168;-67
2022/12/08 10:45:20;;;;;;;11.23;10.63;;;;;;;;;;5052121;28;20016;-64
2022/12/08 10:47:55;;;;;;;11.00;10.40;;;;;;;;;;5054723;28;20017;-64
2022/12/08 10:50:26;;;;;;;10.10;9.60;;;;;;;;;;5050901;28;20040;-64
2022/12/08 10:52:56;;;;;;;11.07;10.48;;;;;;;;;;5046502;28;20033;-65
2022/12/08 10:55:22;;;;;;;9.80;9.30;;;;;;;;;;5048902;28;20039;-78
2022/12/08 10:57:48;;;;;;;10.75;10.20;;;;;;;;;;5048276;28;20068;-75
2022/12/08 11:00:15;;;;;;;11.38;10.77;;;;;;;;;;5051261;28;20044;-74
2022/12/08 11:03:00;;;;;;;10.27;9.77;;;;;;;;;;5049479;28;20037;-75
2022/12/08 11:05:32;;;;;;;10.05;9.55;;;;;;;;;;5052603;28;20415;-75
2022/12/08 11:07:57;;;;;;;10.60;10.10;;;;;;;;;;5058239;28;20012;-76
2022/12/08 11:10:29;;;;;;;10.35;9.85;;;;;;;;;;5055050;28;20078;-75
2022/12/08 11:12:57;;;;;;;12.25;11.55;;;;;;;;;;5051480;28;20041;-76
2022/12/08 11:15:23;;;;;;;11.23;10.63;;;;;;;;;;5050303;28;20023;-73
2022/12/08 11:17:58;;;;;;;11.10;10.50;;;;;;;;;;5050884;28;20025;-75
2022/12/08 11:20:23;;;;;;;11.10;10.50;;;;;;;;;;5052213;28;20025;-71
2022/12/08 11:22:52;;;;;;;10.45;9.95;;;;;;;;;;5048949;28;20036;-72
2022/12/08 11:25:27;;;;;;;11.07;10.48;;;;;;;;;;5048045;28;20028;-69
2022/12/08 11:27:52;;;;;;;;;;;;;;;;;;5045875;28;20411;-72
2022/12/08 11:30:20;;;;;;;11.10;10.50;;;;;;;;;;5047464;28;20007;-70
2022/12/08 11:32:53;;;;;;;11.40;10.80;;;;;;;;;;5049166;28;20310;-71
2022/12/08 11:35:28;;;;;;;10.67;10.13;;;;;;;;;;5051236;28;20110;-71
2022/12/08 11:37:53;;;;;;;;;;;;;;;;;;5055240;28;20020;-69
2022/12/08 11:40:30;;;;;;;10.77;10.20;;;;;;;;;;5050536;28;19920;-70
2022/12/08 11:42:55;;;;;;;12.43;11.73;;;;;;;;;;5050219;28;20028;-70
2022/12/08 11:45:24;;;;;;;10.90;10.32;;;;;;;;;;5045329;28;20105;-72
2022/12/08 11:48:12;;;;;;;10.88;10.30;;;;;;;;;;5055714;28;20151;-71
2022/12/08 11:50:44;;;;;;;11.80;11.10;;;;;;;;;;5050020;28;20078;-73
2022/12/08 11:53:28;;;;;;;11.90;11.20;;;;;;;;;;5045657;28;20395;-69
2022/12/08 11:55:59;;;;;;;11.43;10.80;;;;;;;;;;5042355;28;20029;-68
2022/12/08 11:58:35;;;;;;;12.00;11.30;;;;;;;;;;5043978;28;20025;-75
2022/12/08 12:01:00;;;;;;;11.73;11.10;;;;;;;;;;5050919;28;20020;-70
2022/12/08 12:03:32;;;;;;;10.25;9.75;;;;;;;;;;5049843;28;20024;-70
2022/12/08 12:06:05;;;;;;;11.50;10.88;;;;;;;;;;5052024;28;20485;-70
2022/12/08 12:08:54;;;;;;;11.23;10.63;;;;;;;;;;5051034;28;20036;-69
2022/12/08 12:12:12;;;;;;;9.65;9.25;;;;;;;;;;5052848;28;20025;-71
2022/12/08 12:14:14;;;;;;;11.45;10.85;;;;;;;;;;5050435;28;21307;-72
2022/12/08 12:16:42;;;;;;;10.20;9.70;;;;;;;;;;5043653;28;20029;-73
2022/12/08 12:19:11;;;;;;;10.10;9.60;;;;;;;;;;5048925;28;20017;-71
2022/12/08 12:21:44;;;;;;;12.23;11.52;;;;;;;;;;5047855;28;20472;-71
2022/12/08 12:24:15;;;;;;;11.35;10.75;;;;;;;;;;5050085;28;20021;-71
2022/12/08 12:27:09;;;;;;;11.73;11.10;;;;;;;;;;5047539;28;20074;-71
2022/12/08 12:29:36;;;;;;;11.02;10.43;;;;;;;;;;5046759;28;20043;-72
2022/12/08 12:32:03;;;;;;;11.23;10.63;;;;;;;;;;5047405;28;20020;-71
2022/12/08 12:34:30;;;;;;;10.23;9.73;;;;;;;;;;5053499;28;20112;-69
2022/12/08 12:36:55;;;;;;;13.15;12.35;;;;;;;;;;5049380;28;20028;-70
2022/12/08 12:39:24;;;;;;;10.75;10.18;;;;;;;;;;5047474;28;20084;-69
2022/12/08 12:41:54;;;;;;;11.00;10.40;;;;;;;;;;5055187;28;20025;-70
2022/12/08 12:44:21;;;;;;;10.48;9.98;;;;;;;;;;5044871;28;20533;-70
2022/12/08 12:46:47;;;;;;;11.07;10.48;;;;;;;;;;5048534;28;20024;-72
2022/12/08 12:49:31;;;;;;;10.00;9.50;;;;;;;;;;5049488;28;20781;-70
2022/12/08 12:51:56;;;;;;;11.33;10.73;;;;;;;;;;5049446;28;20040;-69
2022/12/08 12:54:23;;;;;;;10.35;9.85;;;;;;;;;;5054871;28;20036;-69
2022/12/08 12:56:53;;;;;;;10.38;9.88;;;;;;;;;;5050612;28;20021;-66
2022/12/08 12:59:21;;;;;;;10.10;9.60;;;;;;;;;;5052829;28;20025;-75
2022/12/08 13:01:53;;;;;;;11.02;10.43;;;;;;;;;;5049059;28;20040;-74
2022/12/08 13:04:18;;;;;;;10.48;9.98;;;;;;;;;;5043457;28;20029;-71
2022/12/08 13:06:46;;;;;;;11.45;10.85;;;;;;;;;;5049291;28;20017;-69
2022/12/08 13:09:29;;;;;;;10.35;9.85;;;;;;;;;;5061001;28;20043;-69
2022/12/08 13:11:57;;;;;;;11.35;10.75;;;;;;;;;;5063014;28;20086;-68
2022/12/08 13:14:30;;;;;;;10.40;9.90;;;;;;;;;;5059572;28;20087;-68
2022/12/08 13:16:57;;;;;;;11.13;10.52;;;;;;;;;;5060211;28;20503;-69
2022/12/08 13:19:22;;;;;;;10.50;9.98;;;;;;;;;;5053219;28;20128;-69
2022/12/08 13:21:48;;;;;;;10.52;10.02;;;;;;;;;;5056816;28;20138;-70
2022/12/08 13:24:23;;;;;;;10.07;9.57;;;;;;;;;;5052482;28;20017;-70
2022/12/08 13:27:08;;;;;;;11.10;10.50;;;;;;;;;;5058327;28;20067;-71
2022/12/08 13:29:36;;;;;;;10.23;9.73;;;;;;;;;;5057062;28;20439;-69
2022/12/08 13:32:24;;;;;;;11.05;10.45;;;;;;;;;;5051170;28;20443;-70
2022/12/08 13:34:57;;;;;;;11.32;10.73;;;;;;;;;;5039845;28;20037;-69
2022/12/08 13:37:55;;;;;;;11.93;11.23;;;;;;;;;;5052601;28;20595;-69
2022/12/08 13:40:24;;;;;;;10.27;9.77;;;;;;;;;;5036084;28;20037;-70
2022/12/08 13:42:55;;;;;;;11.40;10.80;;;;;;;;;;5053076;28;20029;-70
2022/12/08 13:45:21;;;;;;;11.88;11.20;;;;;;;;;;5052084;28;20021;-70
2022/12/08 13:48:20;;;;;;;11.88;11.18;;;;;;;;;;5055792;28;20029;-69
2022/12/08 13:51:12;;;;;;;11.82;11.18;;;;;;;;;;5021831;28;20049;-71
2022/12/08 13:53:38;;;;;;;10.80;10.23;;;;;;;;;;5049410;28;20025;-71
2022/12/08 13:56:05;;;;;;;10.68;10.18;;;;;;;;;;5051481;28;20024;-70
2022/12/08 13:58:32;;;;;;;10.98;10.38;;;;;;;;;;5053375;28;20022;-69
2022/12/08 14:01:06;;;;;;;12.23;11.52;;;;;;;;;;5051072;28;20028;-68
2022/12/08 14:03:31;;;;;;;;;;;;;;;;;;5052877;28;20108;-69
2022/12/08 14:05:57;;;;;;;10.93;10.32;;;;;;;;;;5054263;28;19995;-70
2022/12/08 14:08:28;;;;;;;10.70;10.20;;;;;;;;;;5050412;28;20044;-71
2022/12/08 14:10:57;;;;;;;10.50;10.00;;;;;;;;;;5058953;28;20369;-69
2022/12/08 14:13:23;;;;;;;11.52;10.93;;;;;;;;;;5048050;28;20041;-70
2022/12/08 14:15:48;;;;;;;11.43;10.82;;;;;;;;;;5048777;28;20020;-69
2022/12/08 14:18:24;;;;;;;11.85;11.15;;;;;;;;;;5054805;28;20372;-70
2022/12/08 14:21:03;;;;;;;11.18;10.57;;;;;;;;;;5047491;28;20376;-71
2022/12/08 14:23:28;;;;;;;10.40;9.90;;;;;;;;;;5054105;28;20087;-70
2022/12/08 14:25:54;;;;;;;11.02;10.43;;;;;;;;;;5046680;28;20096;-70
2022/12/08 14:28:20;;;;;;;11.63;11.02;;;;;;;;;;5052651;28;20022;-71
2022/12/08 14:30:47;;;;;;;11.88;11.23;;;;;;;;;;5049866;28;20100;-71
2022/12/08 14:33:13;;;;;;;11.85;11.15;;;;;;;;;;5052301;28;20071;-71